Weather at Tabuk Airport

Public forecast

Using degrees Celsius for public forecast. Weather courtesy of forecast.io.

Current aviation weather report (METAR) for Tabuk Airport

Retrieved 2020/09/27 03:00 UTC (24 minutes ago):

OETB 270300Z 00000KT CAVOK 21/04 Q1014 NOSIG

Aviation forecast (TAF) for Tabuk Airport

Retrieved 2020-09-27 00:09 UTC (3 hours ago):

TAF OETB 262300Z 2700/2806 VRB03KT CAVOK BECMG 2706/2708 07012KT